sensor_id;sensor_type;location;lat;lon;timestamp;pressure;altitude;pressure_sealevel;temperature;humidity
55540;BME280;41384;51.418;7.286;2023-04-30T00:00:42;100511.41;;;9.93;91.64
55540;BME280;41384;51.418;7.286;2023-04-30T00:03:07;100508.97;;;9.76;91.88
55540;BME280;41384;51.418;7.286;2023-04-30T00:05:33;100510.97;;;9.74;92.52
55540;BME280;41384;51.418;7.286;2023-04-30T00:07:58;100518.88;;;9.59;94.14
55540;BME280;41384;51.418;7.286;2023-04-30T00:10:23;100519.25;;;9.56;94.22
55540;BME280;41384;51.418;7.286;2023-04-30T00:12:48;100518.88;;;9.59;93.92
55540;BME280;41384;51.418;7.286;2023-04-30T00:15:14;100520.63;;;9.52;94.53
55540;BME280;41384;51.418;7.286;2023-04-30T00:17:39;100521.88;;;9.56;94.92
55540;BME280;41384;51.418;7.286;2023-04-30T00:20:05;100528.06;;;9.48;93.85
55540;BME280;41384;51.418;7.286;2023-04-30T00:22:31;100523.22;;;9.37;93.88
55540;BME280;41384;51.418;7.286;2023-04-30T00:24:57;100522.31;;;9.30;94.51
55540;BME280;41384;51.418;7.286;2023-04-30T00:27:22;100524.06;;;9.38;94.93
55540;BME280;41384;51.418;7.286;2023-04-30T00:29:48;100526.97;;;9.43;94.57
55540;BME280;41384;51.418;7.286;2023-04-30T00:32:13;100529.34;;;9.38;94.34
55540;BME280;41384;51.418;7.286;2023-04-30T00:34:38;100535.31;;;9.31;96.28
55540;BME280;41384;51.418;7.286;2023-04-30T00:37:04;100531.69;;;9.32;96.02
55540;BME280;41384;51.418;7.286;2023-04-30T00:39:29;100524.16;;;9.29;95.13
55540;BME280;41384;51.418;7.286;2023-04-30T00:41:54;100535.69;;;9.28;94.72
55540;BME280;41384;51.418;7.286;2023-04-30T00:44:19;100537.66;;;9.11;96.09
55540;BME280;41384;51.418;7.286;2023-04-30T00:46:45;100525.00;;;9.07;96.08
55540;BME280;41384;51.418;7.286;2023-04-30T00:49:10;100527.63;;;9.07;96.86
55540;BME280;41384;51.418;7.286;2023-04-30T00:51:37;100534.19;;;9.11;95.77
55540;BME280;41384;51.418;7.286;2023-04-30T00:54:05;100529.91;;;9.10;95.36
55540;BME280;41384;51.418;7.286;2023-04-30T00:56:31;100527.47;;;9.08;96.30
55540;BME280;41384;51.418;7.286;2023-04-30T00:58:57;100535.38;;;9.23;94.86
55540;BME280;41384;51.418;7.286;2023-04-30T01:01:24;100535.56;;;9.22;94.19
55540;BME280;41384;51.418;7.286;2023-04-30T01:03:49;100529.56;;;9.13;93.77
55540;BME280;41384;51.418;7.286;2023-04-30T01:06:15;100531.06;;;8.92;96.04
55540;BME280;41384;51.418;7.286;2023-04-30T01:08:40;100528.91;;;8.96;96.86
55540;BME280;41384;51.418;7.286;2023-04-30T01:11:21;100531.88;;;8.93;95.26
55540;BME280;41384;51.418;7.286;2023-04-30T01:16:53;100528.28;;;8.70;97.32
55540;BME280;41384;51.418;7.286;2023-04-30T01:21:58;100518.81;;;8.61;98.01
55540;BME280;41384;51.418;7.286;2023-04-30T01:24:53;100521.94;;;8.56;97.98
55540;BME280;41384;51.418;7.286;2023-04-30T01:27:31;100524.56;;;8.56;97.61
55540;BME280;41384;51.418;7.286;2023-04-30T01:30:05;100525.56;;;8.79;96.87
55540;BME280;41384;51.418;7.286;2023-04-30T01:32:31;100528.56;;;8.75;96.42
55540;BME280;41384;51.418;7.286;2023-04-30T01:34:56;100521.19;;;8.71;97.07
55540;BME280;41384;51.418;7.286;2023-04-30T01:37:38;100518.88;;;8.53;97.69
55540;BME280;41384;51.418;7.286;2023-04-30T01:40:22;100523.88;;;8.63;97.93
55540;BME280;41384;51.418;7.286;2023-04-30T01:48:57;100519.66;;;8.76;96.10
55540;BME280;41384;51.418;7.286;2023-04-30T01:51:39;100517.91;;;8.69;97.10
55540;BME280;41384;51.418;7.286;2023-04-30T01:54:16;100522.72;;;8.65;97.16
55540;BME280;41384;51.418;7.286;2023-04-30T01:56:54;100523.41;;;8.59;98.18
55540;BME280;41384;51.418;7.286;2023-04-30T01:59:23;100521.72;;;8.66;97.75
55540;BME280;41384;51.418;7.286;2023-04-30T02:01:49;100524.94;;;8.76;94.98
55540;BME280;41384;51.418;7.286;2023-04-30T02:04:14;100518.81;;;8.61;96.22
55540;BME280;41384;51.418;7.286;2023-04-30T02:06:40;100518.53;;;8.47;97.46
55540;BME280;41384;51.418;7.286;2023-04-30T02:09:05;100524.50;;;8.65;97.46
55540;BME280;41384;51.418;7.286;2023-04-30T02:11:31;100523.13;;;8.54;97.03
55540;BME280;41384;51.418;7.286;2023-04-30T02:13:56;100519.31;;;8.56;96.83
55540;BME280;41384;51.418;7.286;2023-04-30T02:16:22;100522.25;;;8.61;96.08
55540;BME280;41384;51.418;7.286;2023-04-30T02:18:47;100530.28;;;8.37;97.37
55540;BME280;41384;51.418;7.286;2023-04-30T02:21:13;100522.88;;;8.32;97.83
55540;BME280;41384;51.418;7.286;2023-04-30T02:23:39;100525.56;;;8.24;98.83
55540;BME280;41384;51.418;7.286;2023-04-30T02:26:04;100532.22;;;8.11;98.82
55540;BME280;41384;51.418;7.286;2023-04-30T02:28:29;100533.50;;;8.15;99.41
55540;BME280;41384;51.418;7.286;2023-04-30T02:30:55;100532.84;;;8.13;99.29
55540;BME280;41384;51.418;7.286;2023-04-30T02:33:20;100537.13;;;8.14;99.52
55540;BME280;41384;51.418;7.286;2023-04-30T02:35:45;100536.47;;;8.12;99.86
55540;BME280;41384;51.418;7.286;2023-04-30T02:38:11;100539.75;;;8.14;100.00
55540;BME280;41384;51.418;7.286;2023-04-30T02:40:36;100531.56;;;8.09;100.00
55540;BME280;41384;51.418;7.286;2023-04-30T02:43:01;100539.78;;;8.06;100.00
55540;BME280;41384;51.418;7.286;2023-04-30T02:45:27;100532.25;;;8.03;100.00
55540;BME280;41384;51.418;7.286;2023-04-30T02:47:52;100532.44;;;7.93;100.00
55540;BME280;41384;51.418;7.286;2023-04-30T02:50:17;100537.84;;;8.00;100.00
55540;BME280;41384;51.418;7.286;2023-04-30T02:52:45;100540.94;;;8.12;100.00
55540;BME280;41384;51.418;7.286;2023-04-30T02:55:11;100539.44;;;8.09;100.00
55540;BME280;41384;51.418;7.286;2023-04-30T02:57:36;100535.53;;;8.05;100.00
55540;BME280;41384;51.418;7.286;2023-04-30T03:00:02;100532.56;;;8.08;100.00
55540;BME280;41384;51.418;7.286;2023-04-30T03:02:27;100541.63;;;8.06;100.00
55540;BME280;41384;51.418;7.286;2023-04-30T03:04:53;100533.34;;;8.17;99.65
55540;BME280;41384;51.418;7.286;2023-04-30T03:07:18;100536.00;;;8.09;99.98
55540;BME280;41384;51.418;7.286;2023-04-30T03:09:43;100538.16;;;8.05;100.00
55540;BME280;41384;51.418;7.286;2023-04-30T03:12:10;100529.81;;;8.01;99.76
55540;BME280;41384;51.418;7.286;2023-04-30T03:14:35;100536.53;;;8.04;99.47
55540;BME280;41384;51.418;7.286;2023-04-30T03:17:01;100529.66;;;7.95;99.73
55540;BME280;41384;51.418;7.286;2023-04-30T03:19:26;100526.72;;;7.89;100.00
55540;BME280;41384;51.418;7.286;2023-04-30T03:21:53;100526.16;;;8.11;99.91
55540;BME280;41384;51.418;7.286;2023-04-30T03:24:19;100525.00;;;8.05;100.00
55540;BME280;41384;51.418;7.286;2023-04-30T03:26:45;100523.41;;;7.96;100.00
55540;BME280;41384;51.418;7.286;2023-04-30T03:29:10;100524.72;;;8.00;100.00
55540;BME280;41384;51.418;7.286;2023-04-30T03:31:35;100532.44;;;7.93;100.00
55540;BME280;41384;51.418;7.286;2023-04-30T03:34:00;100526.16;;;8.11;100.00
55540;BME280;41384;51.418;7.286;2023-04-30T03:36:26;100516.72;;;8.16;100.00
55540;BME280;41384;51.418;7.286;2023-04-30T03:38:51;100520.75;;;8.04;100.00
55540;BME280;41384;51.418;7.286;2023-04-30T03:41:16;100518.97;;;8.28;100.00
55540;BME280;41384;51.418;7.286;2023-04-30T03:43:41;100518.81;;;8.29;99.59
55540;BME280;41384;51.418;7.286;2023-04-30T03:46:07;100513.47;;;8.14;100.00
55540;BME280;41384;51.418;7.286;2023-04-30T03:48:32;100519.09;;;8.03;100.00
55540;BME280;41384;51.418;7.286;2023-04-30T03:50:57;100510.88;;;8.06;100.00
55540;BME280;41384;51.418;7.286;2023-04-30T03:53:23;100519.78;;;7.97;100.00
55540;BME280;41384;51.418;7.286;2023-04-30T03:55:50;100521.28;;;7.91;100.00
55540;BME280;41384;51.418;7.286;2023-04-30T03:58:15;100521.03;;;8.09;100.00
55540;BME280;41384;51.418;7.286;2023-04-30T04:00:40;100522.72;;;8.02;100.00
55540;BME280;41384;51.418;7.286;2023-04-30T04:03:06;100520.88;;;8.11;100.00
55540;BME280;41384;51.418;7.286;2023-04-30T04:05:31;100518.66;;;7.99;100.00
55540;BME280;41384;51.418;7.286;2023-04-30T04:07:56;100518.53;;;7.84;100.00
55540;BME280;41384;51.418;7.286;2023-04-30T04:10:22;100523.44;;;7.87;99.96
55540;BME280;41384;51.418;7.286;2023-04-30T04:12:47;100527.75;;;7.80;100.00
55540;BME280;41384;51.418;7.286;2023-04-30T04:15:12;100527.06;;;7.86;99.54
55540;BME280;41384;51.418;7.286;2023-04-30T04:17:38;100538.56;;;7.85;99.14
55540;BME280;41384;51.418;7.286;2023-04-30T04:20:03;100535.66;;;7.72;100.00
55540;BME280;41384;51.418;7.286;2023-04-30T04:22:30;100543.88;;;7.69;100.00
55540;BME280;41384;51.418;7.286;2023-04-30T04:24:55;100545.69;;;7.68;100.00
55540;BME280;41384;51.418;7.286;2023-04-30T04:27:20;100543.88;;;7.69;100.00
55540;BME280;41384;51.418;7.286;2023-04-30T04:29:46;100547.53;;;7.59;100.00
55540;BME280;41384;51.418;7.286;2023-04-30T04:32:12;100542.28;;;7.59;100.00
55540;BME280;41384;51.418;7.286;2023-04-30T04:34:38;100546.66;;;7.67;100.00
55540;BME280;41384;51.418;7.286;2023-04-30T04:37:04;100542.06;;;7.69;100.00
55540;BME280;41384;51.418;7.286;2023-04-30T04:39:29;100539.91;;;7.81;100.00
55540;BME280;41384;51.418;7.286;2023-04-30T04:41:55;100543.34;;;7.82;100.00
55540;BME280;41384;51.418;7.286;2023-04-30T04:44:20;100551.41;;;7.80;100.00
55540;BME280;41384;51.418;7.286;2023-04-30T04:46:46;100546.63;;;7.84;100.00
55540;BME280;41384;51.418;7.286;2023-04-30T04:49:11;100543.47;;;7.97;100.00
55540;BME280;41384;51.418;7.286;2023-04-30T04:51:37;100542.31;;;7.91;100.00
55540;BME280;41384;51.418;7.286;2023-04-30T04:54:03;100539.03;;;7.89;100.00
55540;BME280;41384;51.418;7.286;2023-04-30T04:56:29;100546.13;;;7.88;100.00
55540;BME280;41384;51.418;7.286;2023-04-30T04:58:54;100544.59;;;8.02;100.00
55540;BME280;41384;51.418;7.286;2023-04-30T05:01:21;100550.56;;;8.20;100.00
55540;BME280;41384;51.418;7.286;2023-04-30T05:03:46;100549.88;;;8.26;100.00
55540;BME280;41384;51.418;7.286;2023-04-30T05:06:12;100552.00;;;8.30;100.00
55540;BME280;41384;51.418;7.286;2023-04-30T05:08:37;100553.19;;;8.20;100.00
55540;BME280;41384;51.418;7.286;2023-04-30T05:11:03;100560.78;;;8.14;100.00
55540;BME280;41384;51.418;7.286;2023-04-30T05:13:28;100564.31;;;8.30;100.00
55540;BME280;41384;51.418;7.286;2023-04-30T05:15:54;100558.22;;;8.38;100.00
55540;BME280;41384;51.418;7.286;2023-04-30T05:18:19;100559.69;;;8.40;100.00
55540;BME280;41384;51.418;7.286;2023-04-30T05:20:44;100563.63;;;8.36;100.00
55540;BME280;41384;51.418;7.286;2023-04-30T05:23:10;100569.88;;;8.35;100.00
55540;BME280;41384;51.418;7.286;2023-04-30T05:25:35;100563.34;;;8.31;100.00
55540;BME280;41384;51.418;7.286;2023-04-30T05:28:00;100557.53;;;8.44;100.00
55540;BME280;41384;51.418;7.286;2023-04-30T05:30:27;100565.41;;;8.44;100.00
55540;BME280;41384;51.418;7.286;2023-04-30T05:32:52;100561.31;;;8.50;100.00
55540;BME280;41384;51.418;7.286;2023-04-30T05:35:18;100568.88;;;8.44;100.00
55540;BME280;41384;51.418;7.286;2023-04-30T05:37:44;100563.94;;;8.50;100.00
55540;BME280;41384;51.418;7.286;2023-04-30T05:40:09;100574.56;;;8.56;100.00
55540;BME280;41384;51.418;7.286;2023-04-30T05:42:35;100567.31;;;8.58;100.00
55540;BME280;41384;51.418;7.286;2023-04-30T05:45:02;100576.06;;;8.59;100.00
55540;BME280;41384;51.418;7.286;2023-04-30T05:47:28;100574.13;;;8.53;100.00
55540;BME280;41384;51.418;7.286;2023-04-30T05:49:53;100576.75;;;8.53;100.00
55540;BME280;41384;51.418;7.286;2023-04-30T05:52:18;100578.72;;;8.51;100.00
55540;BME280;41384;51.418;7.286;2023-04-30T05:54:44;100582.31;;;8.58;100.00
55540;BME280;41384;51.418;7.286;2023-04-30T05:57:09;100584.94;;;8.58;100.00
55540;BME280;41384;51.418;7.286;2023-04-30T05:59:35;100579.38;;;8.53;100.00
55540;BME280;41384;51.418;7.286;2023-04-30T06:02:00;100584.88;;;8.66;100.00
55540;BME280;41384;51.418;7.286;2023-04-30T06:04:25;100582.41;;;8.65;100.00
55540;BME280;41384;51.418;7.286;2023-04-30T06:06:50;100578.88;;;8.81;100.00
55540;BME280;41384;51.418;7.286;2023-04-30T06:09:16;100586.47;;;8.75;100.00
55540;BME280;41384;51.418;7.286;2023-04-30T06:11:41;100582.34;;;8.73;100.00
55540;BME280;41384;51.418;7.286;2023-04-30T06:14:09;100585.41;;;8.85;100.00
55540;BME280;41384;51.418;7.286;2023-04-30T06:16:35;100581.00;;;9.00;100.00
55540;BME280;41384;51.418;7.286;2023-04-30T06:19:00;100577.38;;;9.01;100.00
55540;BME280;41384;51.418;7.286;2023-04-30T06:21:25;100580.22;;;9.15;100.00
55540;BME280;41384;51.418;7.286;2023-04-30T06:23:51;100578.72;;;9.20;100.00
55540;BME280;41384;51.418;7.286;2023-04-30T06:26:18;100575.25;;;9.20;100.00
55540;BME280;41384;51.418;7.286;2023-04-30T06:28:43;100575.59;;;9.17;100.00
55540;BME280;41384;51.418;7.286;2023-04-30T06:31:09;100574.16;;;9.14;100.00
55540;BME280;41384;51.418;7.286;2023-04-30T06:33:34;100576.53;;;9.24;100.00
55540;BME280;41384;51.418;7.286;2023-04-30T06:35:59;100575.53;;;9.25;100.00
55540;BME280;41384;51.418;7.286;2023-04-30T06:38:25;100569.50;;;9.40;100.00
55540;BME280;41384;51.418;7.286;2023-04-30T06:40:50;100570.31;;;9.40;100.00
55540;BME280;41384;51.418;7.286;2023-04-30T06:43:16;100567.88;;;9.39;100.00
55540;BME280;41384;51.418;7.286;2023-04-30T06:45:41;100579.13;;;9.32;100.00
55540;BME280;41384;51.418;7.286;2023-04-30T06:48:06;100576.75;;;9.38;100.00
55540;BME280;41384;51.418;7.286;2023-04-30T06:50:31;100569.78;;;9.45;100.00
55540;BME280;41384;51.418;7.286;2023-04-30T06:52:57;100569.78;;;9.45;99.85
55540;BME280;41384;51.418;7.286;2023-04-30T06:55:23;100567.22;;;9.52;99.07
55540;BME280;41384;51.418;7.286;2023-04-30T06:57:48;100571.25;;;9.62;99.86
55540;BME280;41384;51.418;7.286;2023-04-30T07:00:13;100569.59;;;9.61;98.94
55540;BME280;41384;51.418;7.286;2023-04-30T07:02:39;100580.84;;;9.70;99.66
55540;BME280;41384;51.418;7.286;2023-04-30T07:05:05;100575.69;;;9.77;97.89
55540;BME280;41384;51.418;7.286;2023-04-30T07:07:30;100563.97;;;9.80;98.25
55540;BME280;41384;51.418;7.286;2023-04-30T07:09:56;100570.88;;;9.81;98.73
55540;BME280;41384;51.418;7.286;2023-04-30T07:12:22;100564.69;;;9.88;97.49
55540;BME280;41384;51.418;7.286;2023-04-30T07:14:47;100563.94;;;9.95;96.83
55540;BME280;41384;51.418;7.286;2023-04-30T07:17:12;100561.78;;;9.98;96.77
55540;BME280;41384;51.418;7.286;2023-04-30T07:19:38;100557.94;;;10.01;96.86
55540;BME280;41384;51.418;7.286;2023-04-30T07:22:03;100561.56;;;10.00;97.88
55540;BME280;41384;51.418;7.286;2023-04-30T07:24:28;100562.31;;;10.08;97.37
55540;BME280;41384;51.418;7.286;2023-04-30T07:26:54;100564.22;;;10.00;96.73
55540;BME280;41384;51.418;7.286;2023-04-30T07:29:20;100564.94;;;10.08;95.91
55540;BME280;41384;51.418;7.286;2023-04-30T07:31:46;100559.31;;;10.12;95.38
55540;BME280;41384;51.418;7.286;2023-04-30T07:34:11;100558.09;;;10.14;95.57
55540;BME280;41384;51.418;7.286;2023-04-30T07:36:37;100565.09;;;10.22;94.99
55540;BME280;41384;51.418;7.286;2023-04-30T07:39:03;100555.13;;;10.17;95.41
55540;BME280;41384;51.418;7.286;2023-04-30T07:41:28;100557.66;;;10.26;94.87
55540;BME280;41384;51.418;7.286;2023-04-30T07:43:53;100556.91;;;10.32;94.36
55540;BME280;41384;51.418;7.286;2023-04-30T07:46:19;100556.91;;;10.32;94.22
55540;BME280;41384;51.418;7.286;2023-04-30T07:48:44;100556.81;;;10.40;94.73
55540;BME280;41384;51.418;7.286;2023-04-30T07:51:09;100562.34;;;10.45;93.63
55540;BME280;41384;51.418;7.286;2023-04-30T07:53:35;100559.84;;;10.59;94.93
55540;BME280;41384;51.418;7.286;2023-04-30T07:56:00;100561.47;;;10.60;94.46
55540;BME280;41384;51.418;7.286;2023-04-30T07:58:25;100559.34;;;10.48;93.09
55540;BME280;41384;51.418;7.286;2023-04-30T08:00:50;100566.28;;;10.56;94.25
55540;BME280;41384;51.418;7.286;2023-04-30T08:03:16;100565.56;;;10.62;93.98
55540;BME280;41384;51.418;7.286;2023-04-30T08:05:41;100571.78;;;10.76;94.30
55540;BME280;41384;51.418;7.286;2023-04-30T08:08:06;100569.59;;;10.80;93.78
55540;BME280;41384;51.418;7.286;2023-04-30T08:10:32;100568.50;;;10.74;92.30
55540;BME280;41384;51.418;7.286;2023-04-30T08:12:57;100570.41;;;10.80;93.37
55540;BME280;41384;51.418;7.286;2023-04-30T08:15:22;100574.44;;;10.76;91.60
55540;BME280;41384;51.418;7.286;2023-04-30T08:17:50;100569.59;;;10.80;92.12
55540;BME280;41384;51.418;7.286;2023-04-30T08:20:16;100572.66;;;10.84;90.65
55540;BME280;41384;51.418;7.286;2023-04-30T08:22:42;100576.94;;;10.85;89.60
55540;BME280;41384;51.418;7.286;2023-04-30T08:25:10;100564.22;;;10.95;90.44
55540;BME280;41384;51.418;7.286;2023-04-30T08:27:39;100564.84;;;10.97;88.88
55540;BME280;41384;51.418;7.286;2023-04-30T08:30:05;100565.09;;;11.02;89.46
55540;BME280;41384;51.418;7.286;2023-04-30T08:32:34;100570.91;;;11.13;90.25
55540;BME280;41384;51.418;7.286;2023-04-30T08:35:00;100569.59;;;11.30;92.92
55540;BME280;41384;51.418;7.286;2023-04-30T08:37:25;100574.44;;;11.27;89.87
55540;BME280;41384;51.418;7.286;2023-04-30T08:39:50;100569.22;;;11.33;88.96
55540;BME280;41384;51.418;7.286;2023-04-30T08:42:16;100573.44;;;11.28;87.19
55540;BME280;41384;51.418;7.286;2023-04-30T08:44:42;100565.97;;;11.38;88.22
55540;BME280;41384;51.418;7.286;2023-04-30T08:47:10;100571.31;;;11.45;88.15
55540;BME280;41384;51.418;7.286;2023-04-30T08:49:39;100577.22;;;11.47;86.77
55540;BME280;41384;51.418;7.286;2023-04-30T08:52:05;100571.00;;;11.55;87.08
55540;BME280;41384;51.418;7.286;2023-04-30T08:54:30;100572.50;;;11.71;87.04
55540;BME280;41384;51.418;7.286;2023-04-30T08:56:56;100576.53;;;11.66;85.87
55540;BME280;41384;51.418;7.286;2023-04-30T08:59:22;100566.00;;;11.73;84.91
55540;BME280;41384;51.418;7.286;2023-04-30T09:01:47;100557.06;;;11.74;84.21
55540;BME280;41384;51.418;7.286;2023-04-30T09:04:12;100567.09;;;11.86;85.04
55540;BME280;41384;51.418;7.286;2023-04-30T09:06:38;100559.59;;;11.96;84.31
55540;BME280;41384;51.418;7.286;2023-04-30T09:09:13;100558.66;;;12.04;83.02
55540;BME280;41384;51.418;7.286;2023-04-30T09:11:39;100565.41;;;12.13;83.80
55540;BME280;41384;51.418;7.286;2023-04-30T09:14:06;100567.44;;;12.18;83.28
55540;BME280;41384;51.418;7.286;2023-04-30T09:16:48;100556.28;;;12.22;82.49
55540;BME280;41384;51.418;7.286;2023-04-30T09:19:27;100553.03;;;12.27;81.70
55540;BME280;41384;51.418;7.286;2023-04-30T09:21:53;100559.78;;;12.43;83.78
55540;BME280;41384;51.418;7.286;2023-04-30T09:24:19;100554.72;;;12.48;83.10
55540;BME280;41384;51.418;7.286;2023-04-30T09:26:45;100550.66;;;12.46;82.87
55540;BME280;41384;51.418;7.286;2023-04-30T09:29:13;100547.59;;;12.55;81.52
55540;BME280;41384;51.418;7.286;2023-04-30T09:31:41;100554.94;;;12.60;81.53
55540;BME280;41384;51.418;7.286;2023-04-30T09:34:07;100552.91;;;12.69;80.79
55540;BME280;41384;51.418;7.286;2023-04-30T09:36:33;100546.00;;;12.75;80.92
55540;BME280;41384;51.418;7.286;2023-04-30T09:39:09;100553.72;;;12.76;77.96
55540;BME280;41384;51.418;7.286;2023-04-30T09:41:40;100554.16;;;12.87;80.14
55540;BME280;41384;51.418;7.286;2023-04-30T09:44:06;100552.13;;;12.95;78.94
55540;BME280;41384;51.418;7.286;2023-04-30T09:46:33;100550.09;;;13.04;79.08
55540;BME280;41384;51.418;7.286;2023-04-30T09:49:01;100551.69;;;13.12;79.37
55540;BME280;41384;51.418;7.286;2023-04-30T09:51:27;100546.81;;;13.22;78.89
55540;BME280;41384;51.418;7.286;2023-04-30T09:53:53;100550.06;;;13.31;78.73
55540;BME280;41384;51.418;7.286;2023-04-30T09:56:21;100535.19;;;13.37;78.64
55540;BME280;41384;51.418;7.286;2023-04-30T09:58:50;100528.84;;;13.45;77.58
55540;BME280;41384;51.418;7.286;2023-04-30T10:01:18;100528.44;;;13.48;78.05
55540;BME280;41384;51.418;7.286;2023-04-30T10:03:44;100532.06;;;13.60;76.99
55540;BME280;41384;51.418;7.286;2023-04-30T10:06:12;100522.69;;;13.64;76.83
55540;BME280;41384;51.418;7.286;2023-04-30T10:08:42;100529.19;;;13.68;76.01
55540;BME280;41384;51.418;7.286;2023-04-30T10:11:09;100524.91;;;13.67;73.20
55540;BME280;41384;51.418;7.286;2023-04-30T10:14:01;100535.94;;;13.71;73.40
55540;BME280;41384;51.418;7.286;2023-04-30T10:16:42;100522.25;;;13.81;72.70
55540;BME280;41384;51.418;7.286;2023-04-30T10:19:15;100518.50;;;13.89;74.01
55540;BME280;41384;51.418;7.286;2023-04-30T10:21:44;100525.22;;;13.98;71.10
55540;BME280;41384;51.418;7.286;2023-04-30T10:24:12;100515.41;;;13.98;72.95
55540;BME280;41384;51.418;7.286;2023-04-30T10:26:37;100513.75;;;14.04;71.89
55540;BME280;41384;51.418;7.286;2023-04-30T10:29:04;100513.97;;;14.03;69.42
55540;BME280;41384;51.418;7.286;2023-04-30T10:31:29;100508.84;;;14.08;71.46
55540;BME280;41384;51.418;7.286;2023-04-30T10:36:41;100501.41;;;14.23;71.72
55540;BME280;41384;51.418;7.286;2023-04-30T10:39:09;100501.19;;;14.25;71.43
55540;BME280;41384;51.418;7.286;2023-04-30T10:41:35;100497.63;;;14.38;72.04
55540;BME280;41384;51.418;7.286;2023-04-30T10:44:01;100502.91;;;14.44;71.71
55540;BME280;41384;51.418;7.286;2023-04-30T10:46:27;100493.03;;;14.52;69.11
55540;BME280;41384;51.418;7.286;2023-04-30T10:48:53;100493.84;;;14.52;70.08
55540;BME280;41384;51.418;7.286;2023-04-30T10:51:20;100485.72;;;14.47;70.85
55540;BME280;41384;51.418;7.286;2023-04-30T10:53:48;100481.00;;;14.49;69.42
55540;BME280;41384;51.418;7.286;2023-04-30T10:56:28;100481.56;;;14.58;70.64
55540;BME280;41384;51.418;7.286;2023-04-30T10:58:58;100477.88;;;14.59;70.16
55540;BME280;41384;51.418;7.286;2023-04-30T11:01:23;100480.31;;;14.61;69.69
55540;BME280;41384;51.418;7.286;2023-04-30T11:04:05;100479.47;;;14.67;68.92
55540;BME280;41384;51.418;7.286;2023-04-30T11:07:08;100465.50;;;14.78;68.98
55540;BME280;41384;51.418;7.286;2023-04-30T11:09:37;100468.16;;;14.78;66.83
55540;BME280;41384;51.418;7.286;2023-04-30T11:12:09;100468.31;;;14.83;67.00
55540;BME280;41384;51.418;7.286;2023-04-30T11:14:39;100466.84;;;14.87;67.88
55540;BME280;41384;51.418;7.286;2023-04-30T11:17:04;100458.13;;;14.80;68.13
55540;BME280;41384;51.418;7.286;2023-04-30T11:19:31;100453.59;;;14.81;68.22
55540;BME280;41384;51.418;7.286;2023-04-30T11:27:24;100466.72;;;15.01;64.85
55540;BME280;41384;51.418;7.286;2023-04-30T11:29:51;100471.13;;;15.07;65.80
55540;BME280;41384;51.418;7.286;2023-04-30T11:32:18;100464.78;;;15.08;65.55
55540;BME280;41384;51.418;7.286;2023-04-30T11:34:44;100461.03;;;15.16;64.76
55540;BME280;41384;51.418;7.286;2023-04-30T11:37:22;100455.78;;;15.28;65.02
55540;BME280;41384;51.418;7.286;2023-04-30T11:39:49;100449.22;;;15.30;64.73
55540;BME280;41384;51.418;7.286;2023-04-30T11:42:17;100445.00;;;15.41;63.53
55540;BME280;41384;51.418;7.286;2023-04-30T11:44:42;100442.91;;;15.43;63.66
55540;BME280;41384;51.418;7.286;2023-04-30T11:47:08;100443.09;;;15.49;62.38
55540;BME280;41384;51.418;7.286;2023-04-30T11:49:33;100451.41;;;15.52;59.74
55540;BME280;41384;51.418;7.286;2023-04-30T11:51:59;100445.66;;;15.55;59.25
55540;BME280;41384;51.418;7.286;2023-04-30T11:54:24;100441.16;;;15.56;60.40
55540;BME280;41384;51.418;7.286;2023-04-30T11:56:50;100436.56;;;15.63;57.31
55540;BME280;41384;51.418;7.286;2023-04-30T11:59:18;100440.41;;;15.67;59.24
55540;BME280;41384;51.418;7.286;2023-04-30T12:01:44;100447.09;;;15.70;59.58
55540;BME280;41384;51.418;7.286;2023-04-30T12:04:09;100445.41;;;15.75;58.66
55540;BME280;41384;51.418;7.286;2023-04-30T12:06:35;100445.53;;;15.81;59.03
55540;BME280;41384;51.418;7.286;2023-04-30T12:09:02;100441.03;;;15.81;59.19
55540;BME280;41384;51.418;7.286;2023-04-30T12:11:30;100435.47;;;15.83;60.48
55540;BME280;41384;51.418;7.286;2023-04-30T12:13:59;100437.84;;;15.91;59.61
55540;BME280;41384;51.418;7.286;2023-04-30T12:16:28;100435.78;;;15.93;57.59
55540;BME280;41384;51.418;7.286;2023-04-30T12:19:02;100439.03;;;15.95;57.36
55540;BME280;41384;51.418;7.286;2023-04-30T12:21:27;100422.97;;;16.02;55.71
55540;BME280;41384;51.418;7.286;2023-04-30T12:23:53;100429.53;;;15.99;54.55
55540;BME280;41384;51.418;7.286;2023-04-30T12:26:18;100422.16;;;16.01;54.60
55540;BME280;41384;51.418;7.286;2023-04-30T12:28:46;100420.44;;;16.07;55.32
55540;BME280;41384;51.418;7.286;2023-04-30T12:31:12;100422.41;;;16.12;55.35
55540;BME280;41384;51.418;7.286;2023-04-30T12:33:38;100416.63;;;16.15;55.94
55540;BME280;41384;51.418;7.286;2023-04-30T12:36:04;100417.53;;;16.09;56.76
55540;BME280;41384;51.418;7.286;2023-04-30T12:38:33;100419.03;;;16.04;57.81
55540;BME280;41384;51.418;7.286;2023-04-30T12:41:03;100411.19;;;16.22;56.49
55540;BME280;41384;51.418;7.286;2023-04-30T12:43:28;100415.38;;;16.29;56.32
55540;BME280;41384;51.418;7.286;2023-04-30T12:45:55;100419.06;;;16.28;56.21
55540;BME280;41384;51.418;7.286;2023-04-30T12:48:23;100412.94;;;16.28;56.93
55540;BME280;41384;51.418;7.286;2023-04-30T12:50:57;100404.81;;;16.34;55.63
55540;BME280;41384;51.418;7.286;2023-04-30T12:53:24;100411.94;;;16.41;53.88
55540;BME280;41384;51.418;7.286;2023-04-30T12:56:09;100411.69;;;16.42;54.62
55540;BME280;41384;51.418;7.286;2023-04-30T12:58:34;100409.38;;;16.46;54.68
55540;BME280;41384;51.418;7.286;2023-04-30T13:01:00;100411.00;;;16.47;55.20
55540;BME280;41384;51.418;7.286;2023-04-30T13:03:25;100398.72;;;16.46;55.46
55540;BME280;41384;51.418;7.286;2023-04-30T13:05:51;100403.72;;;16.54;54.46
55540;BME280;41384;51.418;7.286;2023-04-30T13:08:17;100404.50;;;16.55;55.76
55540;BME280;41384;51.418;7.286;2023-04-30T13:10:47;100398.03;;;16.62;55.02